sensor_id;sensor_type;location;lat;lon;timestamp;temperature;humidity
14733;DHT22;7457;50.960;6.830;2024-01-10T00:01:18;-6.50;74.90
14733;DHT22;7457;50.960;6.830;2024-01-10T00:03:44;-6.50;75.00
14733;DHT22;7457;50.960;6.830;2024-01-10T00:06:10;-6.50;75.20
14733;DHT22;7457;50.960;6.830;2024-01-10T00:08:37;-6.60;75.30
14733;DHT22;7457;50.960;6.830;2024-01-10T00:11:02;-6.60;75.40
14733;DHT22;7457;50.960;6.830;2024-01-10T00:13:31;-6.70;75.50
14733;DHT22;7457;50.960;6.830;2024-01-10T00:15:56;-6.70;75.60
14733;DHT22;7457;50.960;6.830;2024-01-10T00:18:24;-6.80;75.70
14733;DHT22;7457;50.960;6.830;2024-01-10T00:20:50;-6.80;75.90
14733;DHT22;7457;50.960;6.830;2024-01-10T00:23:19;-6.80;76.00
14733;DHT22;7457;50.960;6.830;2024-01-10T00:25:45;-6.90;76.10
14733;DHT22;7457;50.960;6.830;2024-01-10T00:28:11;-6.90;76.30
14733;DHT22;7457;50.960;6.830;2024-01-10T00:30:38;-6.90;76.40
14733;DHT22;7457;50.960;6.830;2024-01-10T00:33:04;-7.00;76.50
14733;DHT22;7457;50.960;6.830;2024-01-10T00:35:30;-7.00;76.60
14733;DHT22;7457;50.960;6.830;2024-01-10T00:37:55;-7.00;76.80
14733;DHT22;7457;50.960;6.830;2024-01-10T00:40:21;-7.00;77.30
14733;DHT22;7457;50.960;6.830;2024-01-10T00:42:47;-7.00;77.30
14733;DHT22;7457;50.960;6.830;2024-01-10T00:45:13;-7.00;77.30
14733;DHT22;7457;50.960;6.830;2024-01-10T00:47:38;-6.90;77.30
14733;DHT22;7457;50.960;6.830;2024-01-10T00:50:05;-6.90;77.90
14733;DHT22;7457;50.960;6.830;2024-01-10T00:52:31;-7.00;77.60
14733;DHT22;7457;50.960;6.830;2024-01-10T00:54:56;-6.90;77.40
14733;DHT22;7457;50.960;6.830;2024-01-10T00:57:22;-7.00;77.40
14733;DHT22;7457;50.960;6.830;2024-01-10T00:59:47;-7.00;77.40
14733;DHT22;7457;50.960;6.830;2024-01-10T01:02:13;-7.00;77.50
14733;DHT22;7457;50.960;6.830;2024-01-10T01:04:39;-7.10;77.80
14733;DHT22;7457;50.960;6.830;2024-01-10T01:07:04;-7.10;77.80
14733;DHT22;7457;50.960;6.830;2024-01-10T01:09:30;-7.10;77.80
14733;DHT22;7457;50.960;6.830;2024-01-10T01:11:55;-7.10;77.70
14733;DHT22;7457;50.960;6.830;2024-01-10T01:14:21;-7.10;77.80
14733;DHT22;7457;50.960;6.830;2024-01-10T01:16:47;-7.10;78.00
14733;DHT22;7457;50.960;6.830;2024-01-10T01:19:12;-7.10;78.00
14733;DHT22;7457;50.960;6.830;2024-01-10T01:21:38;-7.10;78.20
14733;DHT22;7457;50.960;6.830;2024-01-10T01:24:03;-7.20;78.20
14733;DHT22;7457;50.960;6.830;2024-01-10T01:26:29;-7.10;78.20
14733;DHT22;7457;50.960;6.830;2024-01-10T01:28:55;-7.20;78.30
14733;DHT22;7457;50.960;6.830;2024-01-10T01:31:20;-7.20;78.30
14733;DHT22;7457;50.960;6.830;2024-01-10T01:33:46;-7.20;78.40
14733;DHT22;7457;50.960;6.830;2024-01-10T01:36:11;-7.20;78.40
14733;DHT22;7457;50.960;6.830;2024-01-10T01:38:37;-7.20;78.50
14733;DHT22;7457;50.960;6.830;2024-01-10T01:41:03;-7.20;78.60
14733;DHT22;7457;50.960;6.830;2024-01-10T01:43:28;-7.20;78.70
14733;DHT22;7457;50.960;6.830;2024-01-10T01:45:55;-7.20;78.70
14733;DHT22;7457;50.960;6.830;2024-01-10T01:48:23;-7.20;78.80
14733;DHT22;7457;50.960;6.830;2024-01-10T01:50:52;-7.20;78.80
14733;DHT22;7457;50.960;6.830;2024-01-10T01:53:20;-7.20;78.80
14733;DHT22;7457;50.960;6.830;2024-01-10T01:55:46;-7.20;78.90
14733;DHT22;7457;50.960;6.830;2024-01-10T01:58:12;-7.30;79.10
14733;DHT22;7457;50.960;6.830;2024-01-10T02:00:38;-7.20;79.20
14733;DHT22;7457;50.960;6.830;2024-01-10T02:03:05;-7.20;79.20
14733;DHT22;7457;50.960;6.830;2024-01-10T02:05:32;-7.20;79.20
14733;DHT22;7457;50.960;6.830;2024-01-10T02:07:58;-7.20;79.20
14733;DHT22;7457;50.960;6.830;2024-01-10T02:10:23;-7.30;79.20
14733;DHT22;7457;50.960;6.830;2024-01-10T02:12:49;-7.30;79.20
14733;DHT22;7457;50.960;6.830;2024-01-10T02:15:15;-7.30;79.30
14733;DHT22;7457;50.960;6.830;2024-01-10T02:17:42;-7.40;79.40
14733;DHT22;7457;50.960;6.830;2024-01-10T02:20:09;-7.40;79.50
14733;DHT22;7457;50.960;6.830;2024-01-10T02:22:35;-7.40;79.50
14733;DHT22;7457;50.960;6.830;2024-01-10T02:25:00;-7.40;79.60
14733;DHT22;7457;50.960;6.830;2024-01-10T02:27:26;-7.40;79.70
14733;DHT22;7457;50.960;6.830;2024-01-10T02:29:53;-7.50;79.90
14733;DHT22;7457;50.960;6.830;2024-01-10T02:32:19;-7.40;80.00
14733;DHT22;7457;50.960;6.830;2024-01-10T02:34:45;-7.50;80.20
14733;DHT22;7457;50.960;6.830;2024-01-10T02:37:11;-7.40;80.50
14733;DHT22;7457;50.960;6.830;2024-01-10T02:39:36;-7.40;80.50
14733;DHT22;7457;50.960;6.830;2024-01-10T02:42:02;-7.30;80.40
14733;DHT22;7457;50.960;6.830;2024-01-10T02:44:27;-7.30;80.20
14733;DHT22;7457;50.960;6.830;2024-01-10T02:46:53;-7.30;80.20
14733;DHT22;7457;50.960;6.830;2024-01-10T02:49:19;-7.30;80.10
14733;DHT22;7457;50.960;6.830;2024-01-10T02:51:45;-7.30;80.10
14733;DHT22;7457;50.960;6.830;2024-01-10T02:54:11;-7.30;80.20
14733;DHT22;7457;50.960;6.830;2024-01-10T02:56:36;-7.30;80.20
14733;DHT22;7457;50.960;6.830;2024-01-10T02:59:02;-7.30;80.30
14733;DHT22;7457;50.960;6.830;2024-01-10T03:01:28;-7.40;80.30
14733;DHT22;7457;50.960;6.830;2024-01-10T03:03:53;-7.40;80.40
14733;DHT22;7457;50.960;6.830;2024-01-10T03:06:19;-7.40;80.40
14733;DHT22;7457;50.960;6.830;2024-01-10T03:08:45;-7.50;80.50
14733;DHT22;7457;50.960;6.830;2024-01-10T03:11:10;-7.50;80.50
14733;DHT22;7457;50.960;6.830;2024-01-10T03:13:36;-7.50;80.70
14733;DHT22;7457;50.960;6.830;2024-01-10T03:16:03;-7.50;80.70
14733;DHT22;7457;50.960;6.830;2024-01-10T03:18:29;-7.60;80.80
14733;DHT22;7457;50.960;6.830;2024-01-10T03:20:54;-7.60;80.80
14733;DHT22;7457;50.960;6.830;2024-01-10T03:23:21;-7.60;80.90
14733;DHT22;7457;50.960;6.830;2024-01-10T03:25:47;-7.60;81.00
14733;DHT22;7457;50.960;6.830;2024-01-10T03:28:16;-7.70;81.20
14733;DHT22;7457;50.960;6.830;2024-01-10T03:30:45;-7.60;81.20
14733;DHT22;7457;50.960;6.830;2024-01-10T03:33:10;-7.60;81.30
14733;DHT22;7457;50.960;6.830;2024-01-10T03:35:36;-7.70;81.40
14733;DHT22;7457;50.960;6.830;2024-01-10T03:38:02;-7.70;81.50
14733;DHT22;7457;50.960;6.830;2024-01-10T03:40:28;-7.70;81.50
14733;DHT22;7457;50.960;6.830;2024-01-10T03:42:53;-7.70;81.60
14733;DHT22;7457;50.960;6.830;2024-01-10T03:45:19;-7.60;81.60
14733;DHT22;7457;50.960;6.830;2024-01-10T03:47:48;-7.70;81.60
14733;DHT22;7457;50.960;6.830;2024-01-10T03:50:20;-7.60;81.80
14733;DHT22;7457;50.960;6.830;2024-01-10T03:52:46;-7.60;81.90
14733;DHT22;7457;50.960;6.830;2024-01-10T03:55:12;-7.60;81.90
14733;DHT22;7457;50.960;6.830;2024-01-10T03:57:39;-7.60;82.00
14733;DHT22;7457;50.960;6.830;2024-01-10T04:00:05;-7.60;82.00
14733;DHT22;7457;50.960;6.830;2024-01-10T04:02:37;-7.60;81.90
14733;DHT22;7457;50.960;6.830;2024-01-10T04:05:07;-7.60;81.90
14733;DHT22;7457;50.960;6.830;2024-01-10T04:07:33;-7.60;81.90
14733;DHT22;7457;50.960;6.830;2024-01-10T04:09:58;-7.60;82.00
14733;DHT22;7457;50.960;6.830;2024-01-10T04:12:24;-7.60;82.10
14733;DHT22;7457;50.960;6.830;2024-01-10T04:14:50;-7.60;82.30
14733;DHT22;7457;50.960;6.830;2024-01-10T04:17:15;-7.60;82.20
14733;DHT22;7457;50.960;6.830;2024-01-10T04:19:41;-7.60;82.20
14733;DHT22;7457;50.960;6.830;2024-01-10T04:22:06;-7.60;82.20
14733;DHT22;7457;50.960;6.830;2024-01-10T04:24:32;-7.60;82.20
14733;DHT22;7457;50.960;6.830;2024-01-10T04:26:58;-7.70;82.30
14733;DHT22;7457;50.960;6.830;2024-01-10T04:29:23;-7.70;82.40
14733;DHT22;7457;50.960;6.830;2024-01-10T04:31:49;-7.70;82.50
14733;DHT22;7457;50.960;6.830;2024-01-10T04:34:15;-7.70;82.50
14733;DHT22;7457;50.960;6.830;2024-01-10T04:36:41;-7.70;82.80
14733;DHT22;7457;50.960;6.830;2024-01-10T04:39:06;-7.70;82.80
14733;DHT22;7457;50.960;6.830;2024-01-10T04:41:32;-7.70;82.70
14733;DHT22;7457;50.960;6.830;2024-01-10T04:43:57;-7.70;82.70
14733;DHT22;7457;50.960;6.830;2024-01-10T04:46:23;-7.70;82.80
14733;DHT22;7457;50.960;6.830;2024-01-10T04:48:49;-7.70;82.80
14733;DHT22;7457;50.960;6.830;2024-01-10T04:51:14;-7.70;82.80
14733;DHT22;7457;50.960;6.830;2024-01-10T04:53:40;-7.70;82.80
14733;DHT22;7457;50.960;6.830;2024-01-10T04:56:06;-7.70;82.90
14733;DHT22;7457;50.960;6.830;2024-01-10T04:58:31;-7.70;82.90
14733;DHT22;7457;50.960;6.830;2024-01-10T05:00:58;-7.70;83.00
14733;DHT22;7457;50.960;6.830;2024-01-10T05:03:24;-7.70;83.10
14733;DHT22;7457;50.960;6.830;2024-01-10T05:05:49;-7.70;83.10
14733;DHT22;7457;50.960;6.830;2024-01-10T05:08:15;-7.70;83.20
14733;DHT22;7457;50.960;6.830;2024-01-10T05:10:41;-7.70;83.30
14733;DHT22;7457;50.960;6.830;2024-01-10T05:13:06;-7.70;83.40
14733;DHT22;7457;50.960;6.830;2024-01-10T05:15:32;-7.70;83.40
14733;DHT22;7457;50.960;6.830;2024-01-10T05:17:58;-7.70;83.50
14733;DHT22;7457;50.960;6.830;2024-01-10T05:20:23;-7.70;83.50
14733;DHT22;7457;50.960;6.830;2024-01-10T05:22:49;-7.70;83.60
14733;DHT22;7457;50.960;6.830;2024-01-10T05:25:14;-7.80;83.60
14733;DHT22;7457;50.960;6.830;2024-01-10T05:27:43;-7.70;83.70
14733;DHT22;7457;50.960;6.830;2024-01-10T05:30:09;-7.70;83.80
14733;DHT22;7457;50.960;6.830;2024-01-10T05:32:38;-7.70;83.80
14733;DHT22;7457;50.960;6.830;2024-01-10T05:35:03;-7.70;83.90
14733;DHT22;7457;50.960;6.830;2024-01-10T05:37:30;-7.70;83.90
14733;DHT22;7457;50.960;6.830;2024-01-10T05:39:56;-7.70;83.90
14733;DHT22;7457;50.960;6.830;2024-01-10T05:42:21;-7.70;83.90
14733;DHT22;7457;50.960;6.830;2024-01-10T05:44:47;-7.70;84.00
14733;DHT22;7457;50.960;6.830;2024-01-10T05:47:13;-7.70;84.00
14733;DHT22;7457;50.960;6.830;2024-01-10T05:49:39;-7.70;84.10
14733;DHT22;7457;50.960;6.830;2024-01-10T05:52:04;-7.70;84.10
14733;DHT22;7457;50.960;6.830;2024-01-10T05:54:30;-7.70;84.20
14733;DHT22;7457;50.960;6.830;2024-01-10T05:56:56;-7.70;84.30
14733;DHT22;7457;50.960;6.830;2024-01-10T05:59:21;-7.70;84.30
14733;DHT22;7457;50.960;6.830;2024-01-10T06:01:47;-7.60;84.30
14733;DHT22;7457;50.960;6.830;2024-01-10T06:04:12;-7.60;84.30
14733;DHT22;7457;50.960;6.830;2024-01-10T06:06:38;-7.60;84.40
14733;DHT22;7457;50.960;6.830;2024-01-10T06:09:03;-7.60;84.40
14733;DHT22;7457;50.960;6.830;2024-01-10T06:11:30;-7.60;84.40
14733;DHT22;7457;50.960;6.830;2024-01-10T06:13:55;-7.60;84.50
14733;DHT22;7457;50.960;6.830;2024-01-10T06:16:22;-7.60;84.50
14733;DHT22;7457;50.960;6.830;2024-01-10T06:18:48;-7.60;84.60
14733;DHT22;7457;50.960;6.830;2024-01-10T06:21:14;-7.60;84.80
14733;DHT22;7457;50.960;6.830;2024-01-10T06:23:39;-7.50;84.90
14733;DHT22;7457;50.960;6.830;2024-01-10T06:26:05;-7.50;85.00
14733;DHT22;7457;50.960;6.830;2024-01-10T06:28:32;-7.40;85.10
14733;DHT22;7457;50.960;6.830;2024-01-10T06:30:57;-7.40;85.10
14733;DHT22;7457;50.960;6.830;2024-01-10T06:33:24;-7.30;84.90
14733;DHT22;7457;50.960;6.830;2024-01-10T06:35:49;-7.30;84.70
14733;DHT22;7457;50.960;6.830;2024-01-10T06:38:15;-7.30;84.70
14733;DHT22;7457;50.960;6.830;2024-01-10T06:40:42;-7.30;84.60
14733;DHT22;7457;50.960;6.830;2024-01-10T06:43:10;-7.30;84.60
14733;DHT22;7457;50.960;6.830;2024-01-10T06:45:35;-7.30;84.60
14733;DHT22;7457;50.960;6.830;2024-01-10T06:48:01;-7.30;84.60
14733;DHT22;7457;50.960;6.830;2024-01-10T06:50:26;-7.30;84.70
14733;DHT22;7457;50.960;6.830;2024-01-10T06:52:52;-7.40;84.80
14733;DHT22;7457;50.960;6.830;2024-01-10T06:55:18;-7.40;84.90
14733;DHT22;7457;50.960;6.830;2024-01-10T06:57:44;-7.40;84.90
14733;DHT22;7457;50.960;6.830;2024-01-10T07:00:10;-7.40;84.90
14733;DHT22;7457;50.960;6.830;2024-01-10T07:02:37;-7.40;85.00
14733;DHT22;7457;50.960;6.830;2024-01-10T07:05:06;-7.40;85.10
14733;DHT22;7457;50.960;6.830;2024-01-10T07:07:32;-7.40;85.20
14733;DHT22;7457;50.960;6.830;2024-01-10T07:10:01;-7.40;85.30
14733;DHT22;7457;50.960;6.830;2024-01-10T07:12:26;-7.40;85.40
14733;DHT22;7457;50.960;6.830;2024-01-10T07:14:52;-7.40;85.50
14733;DHT22;7457;50.960;6.830;2024-01-10T07:17:17;-7.40;85.60
14733;DHT22;7457;50.960;6.830;2024-01-10T07:19:43;-7.40;85.80
14733;DHT22;7457;50.960;6.830;2024-01-10T07:22:09;-7.40;86.00
14733;DHT22;7457;50.960;6.830;2024-01-10T07:24:35;-7.30;86.10
14733;DHT22;7457;50.960;6.830;2024-01-10T07:27:01;-7.30;86.10
14733;DHT22;7457;50.960;6.830;2024-01-10T07:29:26;-7.30;86.10
14733;DHT22;7457;50.960;6.830;2024-01-10T07:31:52;-7.30;86.20
14733;DHT22;7457;50.960;6.830;2024-01-10T07:34:18;-7.30;86.30
14733;DHT22;7457;50.960;6.830;2024-01-10T07:36:44;-7.30;86.50
14733;DHT22;7457;50.960;6.830;2024-01-10T07:39:09;-7.30;86.50
14733;DHT22;7457;50.960;6.830;2024-01-10T07:41:35;-7.30;86.60
14733;DHT22;7457;50.960;6.830;2024-01-10T07:44:01;-7.30;86.60
14733;DHT22;7457;50.960;6.830;2024-01-10T07:46:26;-7.30;86.80
14733;DHT22;7457;50.960;6.830;2024-01-10T07:48:54;-7.30;87.00
14733;DHT22;7457;50.960;6.830;2024-01-10T07:51:20;-7.30;87.10
14733;DHT22;7457;50.960;6.830;2024-01-10T07:53:47;-7.30;87.10
14733;DHT22;7457;50.960;6.830;2024-01-10T07:56:14;-7.30;87.20
14733;DHT22;7457;50.960;6.830;2024-01-10T07:58:39;-7.30;87.20
14733;DHT22;7457;50.960;6.830;2024-01-10T08:01:05;-7.30;87.40
14733;DHT22;7457;50.960;6.830;2024-01-10T08:03:31;-7.30;87.50
14733;DHT22;7457;50.960;6.830;2024-01-10T08:05:57;-7.20;87.60
14733;DHT22;7457;50.960;6.830;2024-01-10T08:08:23;-7.20;87.70
14733;DHT22;7457;50.960;6.830;2024-01-10T08:10:48;-7.10;87.70
14733;DHT22;7457;50.960;6.830;2024-01-10T08:13:14;-7.10;87.80
14733;DHT22;7457;50.960;6.830;2024-01-10T08:15:39;-7.10;87.80
14733;DHT22;7457;50.960;6.830;2024-01-10T08:18:05;-7.00;87.90
14733;DHT22;7457;50.960;6.830;2024-01-10T08:20:32;-7.00;87.90
14733;DHT22;7457;50.960;6.830;2024-01-10T08:22:58;-7.00;88.00
14733;DHT22;7457;50.960;6.830;2024-01-10T08:25:24;-6.90;88.00
14733;DHT22;7457;50.960;6.830;2024-01-10T08:27:50;-6.90;88.10
14733;DHT22;7457;50.960;6.830;2024-01-10T08:30:17;-6.90;88.20
14733;DHT22;7457;50.960;6.830;2024-01-10T08:32:43;-6.80;88.30
14733;DHT22;7457;50.960;6.830;2024-01-10T08:35:08;-6.80;88.40
14733;DHT22;7457;50.960;6.830;2024-01-10T08:37:34;-6.70;88.40
14733;DHT22;7457;50.960;6.830;2024-01-10T08:40:00;-6.70;88.30
14733;DHT22;7457;50.960;6.830;2024-01-10T08:42:27;-6.60;88.30
14733;DHT22;7457;50.960;6.830;2024-01-10T08:44:53;-6.60;88.30
14733;DHT22;7457;50.960;6.830;2024-01-10T08:47:19;-6.60;88.40
14733;DHT22;7457;50.960;6.830;2024-01-10T08:49:45;-6.50;88.40
14733;DHT22;7457;50.960;6.830;2024-01-10T08:52:10;-6.50;88.40
14733;DHT22;7457;50.960;6.830;2024-01-10T08:54:37;-6.50;88.40
14733;DHT22;7457;50.960;6.830;2024-01-10T08:57:02;-6.40;88.50
14733;DHT22;7457;50.960;6.830;2024-01-10T08:59:28;-6.40;88.50
14733;DHT22;7457;50.960;6.830;2024-01-10T09:01:54;-6.30;88.50
14733;DHT22;7457;50.960;6.830;2024-01-10T09:04:20;-6.30;88.50
14733;DHT22;7457;50.960;6.830;2024-01-10T09:06:45;-6.20;88.50
14733;DHT22;7457;50.960;6.830;2024-01-10T09:09:11;-6.20;88.60
14733;DHT22;7457;50.960;6.830;2024-01-10T09:11:38;-6.20;88.60
14733;DHT22;7457;50.960;6.830;2024-01-10T09:14:04;-6.10;88.60
14733;DHT22;7457;50.960;6.830;2024-01-10T09:16:29;-6.10;88.60
14733;DHT22;7457;50.960;6.830;2024-01-10T09:18:55;-6.00;88.60
14733;DHT22;7457;50.960;6.830;2024-01-10T09:21:24;-6.00;88.70
14733;DHT22;7457;50.960;6.830;2024-01-10T09:23:50;-5.90;88.90
14733;DHT22;7457;50.960;6.830;2024-01-10T09:26:17;-5.90;89.00
14733;DHT22;7457;50.960;6.830;2024-01-10T09:28:43;-5.80;88.90
14733;DHT22;7457;50.960;6.830;2024-01-10T09:31:09;-5.70;88.80
14733;DHT22;7457;50.960;6.830;2024-01-10T09:33:35;-5.60;89.00
14733;DHT22;7457;50.960;6.830;2024-01-10T09:36:00;-5.60;89.20
14733;DHT22;7457;50.960;6.830;2024-01-10T09:38:26;-5.50;89.50
14733;DHT22;7457;50.960;6.830;2024-01-10T09:40:59;-5.40;89.30
14733;DHT22;7457;50.960;6.830;2024-01-10T09:43:30;-5.30;89.70
14733;DHT22;7457;50.960;6.830;2024-01-10T09:45:58;-5.20;90.10
14733;DHT22;7457;50.960;6.830;2024-01-10T09:48:24;-5.00;90.00
14733;DHT22;7457;50.960;6.830;2024-01-10T09:50:51;-4.80;90.00
14733;DHT22;7457;50.960;6.830;2024-01-10T09:53:24;-4.60;89.70
14733;DHT22;7457;50.960;6.830;2024-01-10T09:55:50;-4.50;89.40
14733;DHT22;7457;50.960;6.830;2024-01-10T09:58:16;-4.40;89.50
14733;DHT22;7457;50.960;6.830;2024-01-10T10:00:41;-4.30;89.70
14733;DHT22;7457;50.960;6.830;2024-01-10T10:03:08;-4.10;89.80
14733;DHT22;7457;50.960;6.830;2024-01-10T10:05:38;-3.90;89.50
14733;DHT22;7457;50.960;6.830;2024-01-10T10:08:07;-3.70;89.20
14733;DHT22;7457;50.960;6.830;2024-01-10T10:10:33;-3.60;89.30
14733;DHT22;7457;50.960;6.830;2024-01-10T10:12:58;-3.30;89.20
14733;DHT22;7457;50.960;6.830;2024-01-10T10:15:25;-3.10;88.90
14733;DHT22;7457;50.960;6.830;2024-01-10T10:17:52;-2.90;88.90
14733;DHT22;7457;50.960;6.830;2024-01-10T10:20:30;-2.60;88.70
14733;DHT22;7457;50.960;6.830;2024-01-10T10:28:01;-2.30;85.30
14733;DHT22;7457;50.960;6.830;2024-01-10T10:30:28;-2.20;85.20
14733;DHT22;7457;50.960;6.830;2024-01-10T10:32:54;-2.00;83.80
14733;DHT22;7457;50.960;6.830;2024-01-10T10:35:20;-1.90;82.60
14733;DHT22;7457;50.960;6.830;2024-01-10T10:37:51;-1.70;83.30
14733;DHT22;7457;50.960;6.830;2024-01-10T10:40:18;-1.50;82.00
14733;DHT22;7457;50.960;6.830;2024-01-10T10:42:46;-1.40;80.70
14733;DHT22;7457;50.960;6.830;2024-01-10T10:45:15;-1.50;79.50
14733;DHT22;7457;50.960;6.830;2024-01-10T10:47:44;-1.40;77.60
14733;DHT22;7457;50.960;6.830;2024-01-10T10:50:21;-1.60;76.90
14733;DHT22;7457;50.960;6.830;2024-01-10T10:52:51;-1.90;76.80
14733;DHT22;7457;50.960;6.830;2024-01-10T10:55:18;-2.10;76.80
14733;DHT22;7457;50.960;6.830;2024-01-10T10:57:47;-2.30;77.60
14733;DHT22;7457;50.960;6.830;2024-01-10T11:00:15;-2.30;78.60
14733;DHT22;7457;50.960;6.830;2024-01-10T11:02:41;-2.20;78.40
14733;DHT22;7457;50.960;6.830;2024-01-10T11:05:08;-2.10;78.40
14733;DHT22;7457;50.960;6.830;2024-01-10T11:07:39;-1.90;77.70
14733;DHT22;7457;50.960;6.830;2024-01-10T11:10:08;-1.70;78.80
14733;DHT22;7457;50.960;6.830;2024-01-10T11:23:28;0.00;78.60
14733;DHT22;7457;50.960;6.830;2024-01-10T11:25:58;0.30;77.80
14733;DHT22;7457;50.960;6.830;2024-01-10T11:28:27;0.60;76.30
14733;DHT22;7457;50.960;6.830;2024-01-10T11:30:53;0.60;74.10
14733;DHT22;7457;50.960;6.830;2024-01-10T11:33:23;0.60;74.30
14733;DHT22;7457;50.960;6.830;2024-01-10T11:38:48;0.50;72.20
14733;DHT22;7457;50.960;6.830;2024-01-10T11:46:46;0.00;70.60
14733;DHT22;7457;50.960;6.830;2024-01-10T11:49:16;-0.20;69.90
14733;DHT22;7457;50.960;6.830;2024-01-10T11:51:43;-0.30;69.60
14733;DHT22;7457;50.960;6.830;2024-01-10T11:54:10;-0.40;70.20
14733;DHT22;7457;50.960;6.830;2024-01-10T11:56:40;-0.60;69.10
14733;DHT22;7457;50.960;6.830;2024-01-10T11:59:10;-0.70;69.50
14733;DHT22;7457;50.960;6.830;2024-01-10T12:01:41;-0.70;69.50
14733;DHT22;7457;50.960;6.830;2024-01-10T12:04:07;-0.80;69.30
14733;DHT22;7457;50.960;6.830;2024-01-10T12:06:37;-0.70;70.20
14733;DHT22;7457;50.960;6.830;2024-01-10T12:09:03;-0.70;70.40
14733;DHT22;7457;50.960;6.830;2024-01-10T12:11:38;-0.70;70.10
14733;DHT22;7457;50.960;6.830;2024-01-10T12:14:05;-0.60;70.60
14733;DHT22;7457;50.960;6.830;2024-01-10T12:16:32;-0.50;70.80
14733;DHT22;7457;50.960;6.830;2024-01-10T12:18:58;-0.30;71.40
14733;DHT22;7457;50.960;6.830;2024-01-10T12:21:23;0.00;71.90
14733;DHT22;7457;50.960;6.830;2024-01-10T12:23:50;0.10;72.00
14733;DHT22;7457;50.960;6.830;2024-01-10T12:26:17;0.40;71.10
14733;DHT22;7457;50.960;6.830;2024-01-10T12:28:56;0.70;70.30
14733;DHT22;7457;50.960;6.830;2024-01-10T12:31:22;1.00;69.40
14733;DHT22;7457;50.960;6.830;2024-01-10T12:33:51;1.20;68.60
14733;DHT22;7457;50.960;6.830;2024-01-10T12:36:18;1.20;65.50
14733;DHT22;7457;50.960;6.830;2024-01-10T12:38:44;1.10;65.30
14733;DHT22;7457;50.960;6.830;2024-01-10T12:41:14;0.70;64.00
14733;DHT22;7457;50.960;6.830;2024-01-10T12:43:40;0.50;64.00
14733;DHT22;7457;50.960;6.830;2024-01-10T12:46:07;0.20;64.10
14733;DHT22;7457;50.960;6.830;2024-01-10T12:48:37;0.10;64.20
14733;DHT22;7457;50.960;6.830;2024-01-10T12:51:10;0.00;64.50
14733;DHT22;7457;50.960;6.830;2024-01-10T12:53:41;0.00;65.50
14733;DHT22;7457;50.960;6.830;2024-01-10T12:56:08;0.00;65.70
14733;DHT22;7457;50.960;6.830;2024-01-10T12:58:35;0.00;65.80
14733;DHT22;7457;50.960;6.830;2024-01-10T13:01:04;0.00;66.00
14733;DHT22;7457;50.960;6.830;2024-01-10T13:03:30;0.00;65.70
14733;DHT22;7457;50.960;6.830;2024-01-10T13:05:56;-0.10;65.40
14733;DHT22;7457;50.960;6.830;2024-01-10T13:08:22;-0.10;65.50
14733;DHT22;7457;50.960;6.830;2024-01-10T13:10:48;-0.10;65.80
14733;DHT22;7457;50.960;6.830;2024-01-10T13:13:14;-0.20;65.10
14733;DHT22;7457;50.960;6.830;2024-01-10T13:15:41;-0.20;65.10
14733;DHT22;7457;50.960;6.830;2024-01-10T13:18:08;-0.30;65.20
14733;DHT22;7457;50.960;6.830;2024-01-10T13:20:35;-0.30;65.60
14733;DHT22;7457;50.960;6.830;2024-01-10T13:23:01;-0.30;65.20
14733;DHT22;7457;50.960;6.830;2024-01-10T13:25:34;-0.30;64.60
14733;DHT22;7457;50.960;6.830;2024-01-10T13:28:00;-0.40;64.80
14733;DHT22;7457;50.960;6.830;2024-01-10T13:30:26;-0.40;64.70
14733;DHT22;7457;50.960;6.830;2024-01-10T13:32:52;-0.40;65.00
14733;DHT22;7457;50.960;6.830;2024-01-10T13:35:18;-0.40;65.30
14733;DHT22;7457;50.960;6.830;2024-01-10T13:37:45;-0.30;65.00
14733;DHT22;7457;50.960;6.830;2024-01-10T13:40:11;-0.20;65.60
14733;DHT22;7457;50.960;6.830;2024-01-10T13:42:42;-0.20;65.40
14733;DHT22;7457;50.960;6.830;2024-01-10T13:45:09;-0.10;64.80
14733;DHT22;7457;50.960;6.830;2024-01-10T13:47:38;-0.10;64.30
14733;DHT22;7457;50.960;6.830;2024-01-10T13:50:05;-0.10;64.80
14733;DHT22;7457;50.960;6.830;2024-01-10T13:52:32;-0.10;65.20
14733;DHT22;7457;50.960;6.830;2024-01-10T13:54:58;-0.10;64.40
14733;DHT22;7457;50.960;6.830;2024-01-10T13:57:24;-0.20;63.60
14733;DHT22;7457;50.960;6.830;2024-01-10T13:59:49;-0.20;63.60
14733;DHT22;7457;50.960;6.830;2024-01-10T14:02:15;-0.20;64.40
14733;DHT22;7457;50.960;6.830;2024-01-10T14:04:41;-0.20;64.60
14733;DHT22;7457;50.960;6.830;2024-01-10T14:07:07;-0.20;64.60
14733;DHT22;7457;50.960;6.830;2024-01-10T14:09:32;-0.20;64.90
14733;DHT22;7457;50.960;6.830;2024-01-10T14:11:59;-0.10;64.80
14733;DHT22;7457;50.960;6.830;2024-01-10T14:14:24;-0.10;65.00
14733;DHT22;7457;50.960;6.830;2024-01-10T14:16:50;-0.10;65.00
14733;DHT22;7457;50.960;6.830;2024-01-10T14:19:16;0.00;65.10
14733;DHT22;7457;50.960;6.830;2024-01-10T14:21:44;0.00;65.00
14733;DHT22;7457;50.960;6.830;2024-01-10T14:24:11;0.00;64.40
14733;DHT22;7457;50.960;6.830;2024-01-10T14:26:37;-0.10;64.00
14733;DHT22;7457;50.960;6.830;2024-01-10T14:29:03;-0.10;64.70
14733;DHT22;7457;50.960;6.830;2024-01-10T14:31:28;-0.10;64.70
14733;DHT22;7457;50.960;6.830;2024-01-10T14:33:54;-0.10;65.10
14733;DHT22;7457;50.960;6.830;2024-01-10T14:36:20;-0.10;65.40
14733;DHT22;7457;50.960;6.830;2024-01-10T14:38:46;-0.10;65.70
14733;DHT22;7457;50.960;6.830;2024-01-10T14:41:12;-0.10;65.80
14733;DHT22;7457;50.960;6.830;2024-01-10T14:43:38;0.00;65.70
14733;DHT22;7457;50.960;6.830;2024-01-10T14:46:04;0.00;66.00
14733;DHT22;7457;50.960;6.830;2024-01-10T14:48:31;0.00;66.00
14733;DHT22;7457;50.960;6.830;2024-01-10T14:50:58;0.00;65.90
14733;DHT22;7457;50.960;6.830;2024-01-10T14:53:25;0.00;66.00
14733;DHT22;7457;50.960;6.830;2024-01-10T14:55:51;0.00;65.80
14733;DHT22;7457;50.960;6.830;2024-01-10T14:58:17;0.00;65.70
14733;DHT22;7457;50.960;6.830;2024-01-10T15:00:44;0.00;65.50
14733;DHT22;7457;50.960;6.830;2024-01-10T15:03:10;0.00;65.70
14733;DHT22;7457;50.960;6.830;2024-01-10T15:05:36;0.00;65.70
14733;DHT22;7457;50.960;6.830;2024-01-10T15:08:02;0.00;65.80
14733;DHT22;7457;50.960;6.830;2024-01-10T15:10:28;0.00;65.60
14733;DHT22;7457;50.960;6.830;2024-01-10T15:12:53;0.00;65.90
14733;DHT22;7457;50.960;6.830;2024-01-10T15:15:19;0.00;65.80
14733;DHT22;7457;50.960;6.830;2024-01-10T15:17:45;0.00;65.60
14733;DHT22;7457;50.960;6.830;2024-01-10T15:20:11;0.00;64.90
14733;DHT22;7457;50.960;6.830;2024-01-10T15:22:36;0.00;65.10
14733;DHT22;7457;50.960;6.830;2024-01-10T15:25:06;0.00;64.70
14733;DHT22;7457;50.960;6.830;2024-01-10T15:27:33;0.00;64.80
14733;DHT22;7457;50.960;6.830;2024-01-10T15:29:58;0.00;64.80
14733;DHT22;7457;50.960;6.830;2024-01-10T15:32:24;-0.10;64.80
14733;DHT22;7457;50.960;6.830;2024-01-10T15:34:50;-0.10;64.70
14733;DHT22;7457;50.960;6.830;2024-01-10T15:37:16;-0.20;64.30
14733;DHT22;7457;50.960;6.830;2024-01-10T15:39:41;-0.20;64.10
14733;DHT22;7457;50.960;6.830;2024-01-10T15:42:07;-0.30;63.80
14733;DHT22;7457;50.960;6.830;2024-01-10T15:44:39;-0.40;64.00
14733;DHT22;7457;50.960;6.830;2024-01-10T15:47:05;-0.40;64.10
14733;DHT22;7457;50.960;6.830;2024-01-10T15:49:32;-0.50;64.30
14733;DHT22;7457;50.960;6.830;2024-01-10T15:51:57;-0.60;64.40
14733;DHT22;7457;50.960;6.830;2024-01-10T15:54:23;-0.70;64.60
14733;DHT22;7457;50.960;6.830;2024-01-10T15:56:49;-0.70;64.70
14733;DHT22;7457;50.960;6.830;2024-01-10T15:59:15;-0.80;64.90
14733;DHT22;7457;50.960;6.830;2024-01-10T16:01:41;-0.90;64.90
14733;DHT22;7457;50.960;6.830;2024-01-10T16:04:07;-1.00;65.10
14733;DHT22;7457;50.960;6.830;2024-01-10T16:06:33;-1.00;65.30